Time;durP1;ratioP1;P1;durP2;ratioP2;P2;SDS_P1;SDS_P2;PMS_P1;PMS_P2;Temp;Humidity;BMP_temperature;BMP_pressure;BME280_temperature;BME280_humidity;BME280_pressure;Samples;Min_cycle;Max_cycle;Signal;HPM_P1;HPM_P2
2021/12/11 00:02:01;;;;;;;19.93;9.80;;;;;;;3.93;100.00;95895.84;5157760;27;20446;-37
2021/12/11 00:04:33;;;;;;;16.20;8.50;;;;;;;3.92;100.00;95901.34;5158529;27;20490;-37
2021/12/11 00:07:03;;;;;;;11.60;7.33;;;;;;;3.94;100.00;95889.59;5158617;27;20447;-37
2021/12/11 00:09:34;;;;;;;10.40;7.70;;;;;;;3.94;100.00;95900.09;5158017;27;20797;-37
2021/12/11 00:12:12;;;;;;;9.60;6.97;;;;;;;3.95;100.00;95901.69;5157647;27;20425;-37
2021/12/11 00:14:43;;;;;;;16.13;8.50;;;;;;;3.92;100.00;95912.63;5157634;27;20891;-37
2021/12/11 00:17:12;;;;;;;13.50;8.17;;;;;;;3.92;100.00;95904.75;5157568;27;20448;-37
2021/12/11 00:19:41;;;;;;;17.20;9.30;;;;;;;3.89;100.00;95913.03;5157443;27;20443;-37
2021/12/11 00:22:14;;;;;;;11.77;7.13;;;;;;;3.87;100.00;95920.34;5157434;27;20444;-38
2021/12/11 00:24:44;;;;;;;13.60;7.53;;;;;;;3.85;100.00;95935.50;5157448;27;20907;-36
2021/12/11 00:27:14;;;;;;;15.63;7.67;;;;;;;3.87;100.00;95931.66;5157360;27;20440;-37
2021/12/11 00:29:42;;;;;;;9.13;5.80;;;;;;;3.90;100.00;95927.81;5157382;27;20429;-37
2021/12/11 00:32:12;;;;;;;10.50;6.73;;;;;;;3.91;100.00;95932.03;5157230;27;20793;-37
2021/12/11 00:34:43;;;;;;;9.50;6.37;;;;;;;3.88;100.00;95942.97;5157270;27;20433;-37
2021/12/11 00:37:14;;;;;;;13.60;8.80;;;;;;;3.87;100.00;95930.84;5157163;27;20424;-37
2021/12/11 00:39:49;;;;;;;18.93;12.47;;;;;;;3.86;100.00;95924.00;5156976;27;20468;-37
2021/12/11 00:42:17;;;;;;;23.90;14.53;;;;;;;3.78;100.00;95911.91;5157929;27;20434;-37
2021/12/11 00:44:47;;;;;;;27.10;12.87;;;;;;;3.85;100.00;95910.06;5156910;27;20483;-37
2021/12/11 00:47:18;;;;;;;23.17;14.30;;;;;;;3.83;100.00;95924.41;5157231;27;20442;-37
2021/12/11 00:49:49;;;;;;;24.40;9.70;;;;;;;3.74;100.00;95915.19;5157226;27;20448;-37
2021/12/11 00:52:17;;;;;;;18.87;10.07;;;;;;;3.72;100.00;95927.72;5156889;27;20425;-37
2021/12/11 00:54:46;;;;;;;24.00;13.40;;;;;;;3.73;100.00;95937.22;5156780;27;20440;-37
2021/12/11 00:57:20;;;;;;;33.57;16.67;;;;;;;3.72;100.00;95930.34;5157031;27;20451;-37
2021/12/11 00:59:47;;;;;;;21.07;12.30;;;;;;;3.71;100.00;95939.25;5157009;27;20417;-38
2021/12/11 01:02:15;;;;;;;17.40;9.97;;;;;;;3.63;100.00;95909.63;5156637;27;20446;-38
2021/12/11 01:04:42;;;;;;;14.50;8.10;;;;;;;3.72;100.00;95918.03;5156483;27;20484;-38
2021/12/11 01:07:17;;;;;;;8.00;7.03;;;;;;;3.66;100.00;95914.44;5156869;27;20945;-38
2021/12/11 01:09:50;;;;;;;14.37;9.40;;;;;;;3.68;100.00;95930.00;5156844;27;20465;-38
2021/12/11 01:12:23;;;;;;;9.37;7.57;;;;;;;3.64;100.00;95948.00;5157391;27;20429;-38
2021/12/11 01:14:56;;;;;;;18.37;11.40;;;;;;;3.63;100.00;95943.75;5157279;27;20432;-37
2021/12/11 01:17:38;;;;;;;15.03;9.10;;;;;;;3.58;100.00;95946.22;5156701;27;20425;-37
2021/12/11 01:20:09;;;;;;;15.23;9.53;;;;;;;3.47;100.00;95946.91;5156270;27;20425;-37
2021/12/11 01:22:37;;;;;;;13.83;8.40;;;;;;;3.44;100.00;95952.56;5156541;27;20766;-37
2021/12/11 01:25:11;;;;;;;15.67;9.90;;;;;;;3.43;100.00;95954.38;5156155;27;20446;-37
2021/12/11 01:27:42;;;;;;;11.47;6.93;;;;;;;3.41;100.00;95968.72;5156222;27;20433;-37
2021/12/11 01:30:13;;;;;;;11.10;7.93;;;;;;;3.34;100.00;95962.72;5156102;27;20789;-37
2021/12/11 01:32:42;;;;;;;12.10;6.73;;;;;;;3.34;100.00;95960.09;5156087;27;20425;-37
2021/12/11 01:35:12;;;;;;;6.90;5.60;;;;;;;3.42;100.00;95951.97;5156007;27;20923;-37
2021/12/11 01:37:40;;;;;;;15.63;9.63;;;;;;;3.35;100.00;95943.34;5156010;27;20431;-37
2021/12/11 01:40:13;;;;;;;23.97;10.20;;;;;;;3.37;100.00;95949.19;5155681;27;20476;-37
2021/12/11 01:42:42;;;;;;;13.70;8.37;;;;;;;3.37;100.00;95946.56;5155894;27;20436;-37
2021/12/11 01:45:12;;;;;;;23.20;10.53;;;;;;;3.35;100.00;95943.34;5156176;27;20463;-37
2021/12/11 01:47:44;;;;;;;22.17;13.70;;;;;;;3.34;100.00;95941.75;5156179;27;20420;-37
2021/12/11 01:50:27;;;;;;;23.23;11.87;;;;;;;3.29;100.00;95960.72;5155794;27;20424;-37
2021/12/11 01:52:58;;;;;;;33.80;17.83;;;;;;;3.27;100.00;95966.19;5155722;27;20904;-37
2021/12/11 01:55:35;;;;;;;30.80;17.63;;;;;;;3.23;100.00;95962.38;5155938;27;20512;-37
2021/12/11 01:58:04;;;;;;;26.40;13.07;;;;;;;3.22;100.00;95960.75;5155932;27;20435;-37
2021/12/11 02:00:37;;;;;;;16.40;10.10;;;;;;;3.23;100.00;95941.38;5155400;27;20444;-37
2021/12/11 02:03:08;;;;;;;11.37;8.50;;;;;;;3.25;100.00;95944.59;5155776;27;20507;-37
2021/12/11 02:05:38;;;;;;;11.93;6.93;;;;;;;3.27;100.00;95939.94;5155476;27;20788;-38
2021/12/11 02:08:08;;;;;;;9.83;6.10;;;;;;;3.30;100.00;95932.69;5155486;27;20436;-38
2021/12/11 02:10:40;;;;;;;15.37;7.60;;;;;;;3.31;100.00;95931.66;5155948;27;20451;-37
2021/12/11 02:13:11;;;;;;;15.63;6.97;;;;;;;3.30;100.00;95930.06;5155425;27;20425;-37
2021/12/11 02:15:46;;;;;;;16.33;8.17;;;;;;;3.33;100.00;95927.00;5155714;27;20430;-37
2021/12/11 02:18:18;;;;;;;18.17;8.27;;;;;;;3.35;100.00;95917.09;5155378;27;20428;-37
2021/12/11 02:20:51;;;;;;;14.93;8.97;;;;;;;3.35;100.00;95917.88;5155360;27;20781;-37
2021/12/11 02:23:21;;;;;;;22.17;11.10;;;;;;;3.36;100.00;95910.84;5155502;27;20516;-37
2021/12/11 02:25:50;;;;;;;42.67;23.40;;;;;;;3.35;100.00;95917.09;5155187;27;20452;-37
2021/12/11 02:28:21;;;;;;;29.90;16.93;;;;;;;3.33;100.00;95916.50;5155486;27;20448;-38
2021/12/11 02:30:54;;;;;;;18.43;11.40;;;;;;;3.34;100.00;95918.13;5155246;27;20425;-38
2021/12/11 02:33:26;;;;;;;21.77;13.50;;;;;;;3.34;100.00;95912.88;5155987;27;20433;-37
2021/12/11 02:35:56;;;;;;;17.87;11.10;;;;;;;3.32;100.00;95901.78;5155464;27;20504;-37
2021/12/11 02:38:31;;;;;;;13.27;8.13;;;;;;;3.31;100.00;95897.53;5155058;27;20511;-37
2021/12/11 02:41:03;;;;;;;12.07;6.10;;;;;;;3.33;100.00;95883.19;5155148;27;20419;-38
2021/12/11 02:43:34;;;;;;;11.87;5.30;;;;;;;3.34;100.00;95884.00;5154893;27;20476;-37
2021/12/11 02:46:06;;;;;;;5.40;4.40;;;;;;;3.34;100.00;95900.56;5155047;27;20431;-37
2021/12/11 02:48:38;;;;;;;11.67;7.73;;;;;;;3.36;100.00;95910.84;5155010;27;20431;-37
2021/12/11 02:51:11;;;;;;;9.50;6.20;;;;;;;3.35;100.00;95901.34;5155028;27;20511;-38
2021/12/11 02:53:42;;;;;;;12.33;6.40;;;;;;;3.33;100.00;95895.50;5155262;27;20421;-37
2021/12/11 02:56:13;;;;;;;10.70;6.27;;;;;;;3.34;100.00;95905.00;5155318;27;20891;-37
2021/12/11 02:58:47;;;;;;;11.63;6.30;;;;;;;3.34;100.00;95907.63;5155216;27;20435;-37
2021/12/11 03:01:22;;;;;;;11.43;6.77;;;;;;;3.35;100.00;95903.97;5154942;27;20429;-37
2021/12/11 03:03:57;;;;;;;11.10;7.20;;;;;;;3.36;100.00;95900.34;5154753;27;20992;-38
2021/12/11 03:06:27;;;;;;;11.43;7.00;;;;;;;3.36;100.00;95902.97;5155203;27;20850;-37
2021/12/11 03:08:59;;;;;;;12.47;8.60;;;;;;;3.36;100.00;95900.34;5155354;27;20570;-38
2021/12/11 03:11:32;;;;;;;18.10;10.57;;;;;;;3.37;100.00;95904.56;5155724;27;20439;-37
2021/12/11 03:14:03;;;;;;;19.40;13.17;;;;;;;3.33;100.00;95912.03;5159044;27;20815;-37
2021/12/11 03:16:34;;;;;;;29.73;14.67;;;;;;;3.36;100.00;95902.97;5158762;27;20941;-37
2021/12/11 03:19:05;;;;;;;14.80;10.57;;;;;;;3.34;100.00;95894.50;5158678;27;20420;-38
2021/12/11 03:21:32;;;;;;;23.20;10.47;;;;;;;3.32;100.00;95904.41;5158672;27;20429;-37
2021/12/11 03:24:01;;;;;;;16.00;9.80;;;;;;;3.28;100.00;95902.19;5158806;27;20487;-37
2021/12/11 03:26:30;;;;;;;16.80;10.87;;;;;;;3.32;100.00;95912.28;5158534;27;20953;-38
2021/12/11 03:28:57;;;;;;;18.93;10.70;;;;;;;3.20;100.00;95931.28;5158509;27;20447;-38
2021/12/11 03:31:25;;;;;;;41.30;15.97;;;;;;;3.24;100.00;95922.00;5158742;27;20444;-38
2021/12/11 03:33:57;;;;;;;33.60;15.90;;;;;;;3.23;100.00;95917.78;5158752;27;20440;-38
2021/12/11 03:36:26;;;;;;;12.70;8.57;;;;;;;3.06;100.00;95878.13;5158437;27;20434;-37
2021/12/11 03:38:56;;;;;;;23.07;8.53;;;;;;;3.23;100.00;95902.03;5158122;27;20478;-37
2021/12/11 03:41:27;;;;;;;19.93;8.60;;;;;;;3.25;100.00;95893.97;5158508;27;20957;-37
2021/12/11 03:43:54;;;;;;;7.13;5.80;;;;;;;3.21;100.00;95896.19;5158199;27;20967;-37
2021/12/11 03:46:23;;;;;;;15.10;5.97;;;;;;;3.11;100.00;95869.63;5158078;27;20443;-38
2021/12/11 03:48:53;;;;;;;13.43;7.17;;;;;;;3.19;100.00;95887.72;5158998;27;20440;-43
2021/12/11 03:51:25;;;;;;;6.07;4.47;;;;;;;3.19;100.00;95882.47;5158207;27;20425;-38
2021/12/11 03:53:52;;;;;;;5.73;4.30;;;;;;;3.19;100.00;95882.47;5158095;27;20435;-37
2021/12/11 03:56:20;;;;;;;16.70;7.30;;;;;;;3.18;100.00;95866.94;5158283;27;20436;-37
2021/12/11 03:58:51;;;;;;;16.07;7.67;;;;;;;3.15;100.00;95876.06;5157918;27;20442;-37
2021/12/11 04:01:25;;;;;;;13.83;6.20;;;;;;;3.13;100.00;95864.97;5158236;27;20428;-37
2021/12/11 04:03:55;;;;;;;47.97;19.10;;;;;;;3.12;100.00;95849.44;5157828;27;20484;-37
2021/12/11 04:06:24;;;;;;;9.47;6.10;;;;;;;3.18;100.00;95854.63;5157827;27;20428;-37
2021/12/11 04:08:54;;;;;;;5.93;4.60;;;;;;;3.14;100.00;95865.75;5157780;27;20432;-36
2021/12/11 04:11:24;;;;;;;4.97;3.87;;;;;;;3.14;100.00;95879.69;5158078;27;20924;-37
2021/12/11 04:13:56;;;;;;;16.17;7.97;;;;;;;3.15;100.00;95881.28;5157650;27;20427;-38
2021/12/11 04:16:25;;;;;;;52.07;20.63;;;;;;;3.16;100.00;95882.09;5157950;27;20432;-37
2021/12/11 04:18:53;;;;;;;47.00;22.27;;;;;;;3.18;100.00;95878.25;5157782;27;20438;-37
2021/12/11 04:21:20;;;;;;;41.73;22.70;;;;;;;3.19;100.00;95890.34;5157473;27;20447;-37
2021/12/11 04:23:48;;;;;;;31.10;16.10;;;;;;;3.20;100.00;95873.59;5157345;27;20444;-38
2021/12/11 04:26:16;;;;;;;41.50;14.47;;;;;;;3.19;100.00;95861.50;5157367;27;20810;-37
2021/12/11 04:28:46;;;;;;;29.27;14.90;;;;;;;3.17;100.00;95863.53;5157299;27;20437;-37
2021/12/11 04:31:18;;;;;;;19.17;9.53;;;;;;;3.16;100.00;95856.69;5157571;27;20444;-37
2021/12/11 04:33:50;;;;;;;8.53;5.87;;;;;;;3.19;100.00;95834.47;5157649;27;20424;-37
2021/12/11 04:36:20;;;;;;;9.40;4.17;;;;;;;3.20;100.00;95836.84;5157313;27;20974;-37
2021/12/11 04:38:49;;;;;;;5.87;4.20;;;;;;;3.26;100.00;95835.22;5157392;27;20475;-37
2021/12/11 04:41:26;;;;;;;19.83;9.20;;;;;;;3.30;100.00;95843.47;5157254;27;20467;-38
2021/12/11 04:43:56;;;;;;;28.33;12.70;;;;;;;3.34;100.00;95826.28;5157467;27;20436;-36
2021/12/11 04:46:24;;;;;;;17.83;10.67;;;;;;;3.35;100.00;95812.94;5157027;27;20436;-37
2021/12/11 04:49:01;;;;;;;5.23;3.60;;;;;;;3.36;100.00;95819.00;5157028;27;20448;-37
2021/12/11 04:51:37;;;;;;;7.13;4.23;;;;;;;3.38;100.00;95816.97;5156901;27;20424;-37
2021/12/11 04:54:19;;;;;;;10.67;5.63;;;;;;;3.40;100.00;95830.66;5156864;27;20495;-38
2021/12/11 04:57:09;;;;;;;19.40;12.43;;;;;;;3.39;100.00;95813.31;5157100;27;20448;-38
2021/12/11 04:59:52;;;;;;;8.40;5.60;;;;;;;3.38;100.00;95801.22;5157068;27;20931;-38
2021/12/11 05:05:20;;;;;;;26.20;16.87;;;;;;;3.36;100.00;95824.25;5112371;27;20572;-36
2021/12/11 05:08:01;;;;;;;30.83;18.07;;;;;;;3.41;100.00;95829.66;5112070;28;20495;-37
2021/12/11 05:10:38;;;;;;;28.90;15.43;;;;;;;3.42;100.00;95836.50;5111674;28;20422;-38
2021/12/11 05:13:07;;;;;;;40.07;20.13;;;;;;;3.42;100.00;95836.50;5111478;28;20429;-38
2021/12/11 05:15:37;;;;;;;32.50;18.07;;;;;;;3.45;100.00;95822.97;5112013;28;20910;-37
2021/12/11 05:18:07;;;;;;;30.33;17.23;;;;;;;3.51;100.00;95822.09;5111528;28;20418;-37
2021/12/11 05:20:37;;;;;;;28.57;16.23;;;;;;;3.38;100.00;95823.03;5111501;28;20505;-37
2021/12/11 05:23:05;;;;;;;23.67;16.03;;;;;;;3.57;100.00;95855.38;5111331;28;20453;-37
2021/12/11 05:25:32;;;;;;;18.93;11.93;;;;;;;3.58;100.00;95861.41;5111281;28;20536;-37
2021/12/11 05:28:00;;;;;;;39.37;19.30;;;;;;;3.57;100.00;95852.75;5110943;28;20449;-37
2021/12/11 05:30:32;;;;;;;29.60;17.17;;;;;;;3.57;100.00;95868.50;5110850;28;20444;-38
2021/12/11 05:33:00;;;;;;;100.73;39.57;;;;;;;3.61;100.00;95868.84;5111137;28;20422;-37
2021/12/11 05:35:29;;;;;;;320.17;138.10;;;;;;;3.64;100.00;95874.50;5110828;28;20438;-37
2021/12/11 05:37:58;;;;;;;80.13;35.07;;;;;;;3.65;100.00;95867.41;5111077;28;20442;-37
2021/12/11 05:40:28;;;;;;;29.50;15.70;;;;;;;3.65;100.00;95855.06;5110726;28;20503;-37
2021/12/11 05:42:57;;;;;;;20.00;13.93;;;;;;;3.69;100.00;95865.97;5110713;28;20438;-37
2021/12/11 05:45:26;;;;;;;22.03;12.10;;;;;;;3.72;100.00;95854.22;5109131;28;20520;-37
2021/12/11 05:47:56;;;;;;;15.13;9.50;;;;;;;3.75;100.00;95854.59;5108367;28;21163;-37
2021/12/11 05:50:29;;;;;;;7.17;5.73;;;;;;;3.75;100.00;95853.81;5108727;28;20944;-38
2021/12/11 05:52:58;;;;;;;13.67;10.23;;;;;;;3.81;100.00;95855.56;5108469;28;20466;-37
2021/12/11 05:55:29;;;;;;;16.10;10.93;;;;;;;3.85;100.00;95854.91;5108279;28;20496;-38
2021/12/11 05:57:58;;;;;;;4.13;3.77;;;;;;;3.93;100.00;95837.28;5108141;28;20427;-38
2021/12/11 06:00:27;;;;;;;4.60;3.90;;;;;;;3.95;100.00;95832.59;5108259;28;20446;-38
2021/12/11 06:02:55;;;;;;;10.63;5.30;;;;;;;3.96;100.00;95821.06;5107973;28;20506;-37
2021/12/11 06:05:22;;;;;;;5.43;4.93;;;;;;;4.06;100.00;95809.03;5108560;28;20426;-38
2021/12/11 06:07:52;;;;;;;4.90;3.87;;;;;;;4.17;100.00;95798.81;5108230;28;20478;-38
2021/12/11 06:10:22;;;;;;;14.13;8.97;;;;;;;4.22;100.00;95780.59;5108454;28;20481;-38
2021/12/11 06:12:52;;;;;;;14.43;9.13;;;;;;;4.28;100.00;95779.69;5107423;28;20442;-39
2021/12/11 06:15:20;;;;;;;8.70;7.13;;;;;;;4.27;100.00;95789.38;5101723;28;20910;-37
2021/12/11 06:17:47;;;;;;;11.77;8.00;;;;;;;4.28;100.00;95791.00;5094415;28;20439;-38
2021/12/11 06:20:17;;;;;;;30.57;19.00;;;;;;;4.30;100.00;95793.41;5094317;28;20449;-38
2021/12/11 06:22:45;;;;;;;25.03;14.70;;;;;;;4.27;100.00;95799.91;5094382;28;20960;-38
2021/12/11 06:25:15;;;;;;;20.53;13.87;;;;;;;4.09;100.00;95805.19;5093897;28;20449;-38
2021/12/11 06:27:45;;;;;;;78.07;39.60;;;;;;;4.14;100.00;95831.59;5094577;28;20878;-38
2021/12/11 06:30:14;;;;;;;45.43;26.57;;;;;;;4.09;100.00;95834.88;5094512;28;20466;-38
2021/12/11 06:32:42;;;;;;;52.00;31.63;;;;;;;4.04;100.00;95826.84;5094056;28;20454;-37
2021/12/11 06:35:15;;;;;;;57.83;30.73;;;;;;;4.07;100.00;95844.78;5093974;28;20522;-37
2021/12/11 06:37:42;;;;;;;93.27;54.20;;;;;;;4.09;100.00;95853.25;5093632;28;20790;-37
2021/12/11 06:40:11;;;;;;;87.57;37.37;;;;;;;4.16;100.00;95849.78;5094244;28;20439;-37
2021/12/11 06:42:39;;;;;;;61.23;32.00;;;;;;;4.14;100.00;95849.19;5093891;28;20525;-37
2021/12/11 06:45:08;;;;;;;62.80;28.97;;;;;;;3.94;100.00;95831.00;5094157;28;20474;-37
2021/12/11 06:47:36;;;;;;;88.03;40.93;;;;;;;4.04;100.00;95837.38;5093678;28;20451;-36
2021/12/11 06:50:06;;;;;;;77.90;36.80;;;;;;;4.05;100.00;95838.16;5093799;28;20537;-38
2021/12/11 06:52:33;;;;;;;53.10;30.87;;;;;;;4.07;100.00;95836.91;5093756;28;20465;-38
2021/12/11 06:55:00;;;;;;;58.93;32.30;;;;;;;4.10;100.00;95856.69;5093831;28;20560;-37
2021/12/11 06:57:28;;;;;;;25.90;15.13;;;;;;;4.04;100.00;95847.88;5093664;28;20960;-37
2021/12/11 06:59:55;;;;;;;17.97;10.70;;;;;;;4.17;100.00;95861.88;5093945;28;20443;-36
2021/12/11 07:02:24;;;;;;;12.00;5.20;;;;;;;4.18;100.00;95874.78;5093933;28;20989;-38
2021/12/11 07:04:54;;;;;;;68.53;37.10;;;;;;;4.21;100.00;95884.06;5092957;28;20471;-38
2021/12/11 07:07:24;;;;;;;60.80;29.10;;;;;;;4.10;100.00;95893.47;5093560;28;20925;-37
2021/12/11 07:09:54;;;;;;;34.17;20.33;;;;;;;4.08;100.00;95859.53;5093692;28;20451;-38
2021/12/11 07:12:22;;;;;;;40.87;18.17;;;;;;;4.07;100.00;95823.78;5093343;28;20534;-37
2021/12/11 07:14:51;;;;;;;32.50;16.37;;;;;;;4.05;100.00;95841.59;5093486;28;20516;-38
2021/12/11 07:17:19;;;;;;;52.60;23.43;;;;;;;3.98;100.00;95861.88;5093089;28;20474;-38
2021/12/11 07:19:48;;;;;;;22.63;12.70;;;;;;;4.19;100.00;95855.38;5093528;28;20447;-37
2021/12/11 07:22:16;;;;;;;42.00;22.07;;;;;;;4.35;100.00;95837.44;5093143;28;20458;-37
2021/12/11 07:24:47;;;;;;;31.47;19.67;;;;;;;4.43;100.00;95866.03;5093129;28;20443;-37
2021/12/11 07:27:16;;;;;;;14.97;9.90;;;;;;;4.48;100.00;95864.34;5092437;28;20435;-38
2021/12/11 07:29:43;;;;;;;47.27;24.20;;;;;;;4.50;100.00;95820.25;5092613;28;20457;-38
2021/12/11 07:32:11;;;;;;;25.40;13.80;;;;;;;4.49;100.00;95816.00;5093020;28;20438;-36
2021/12/11 07:34:40;;;;;;;24.10;13.97;;;;;;;4.51;100.00;95848.13;5092851;28;20490;-37
2021/12/11 07:37:09;;;;;;;18.30;11.93;;;;;;;4.54;100.00;95856.59;5092921;28;20447;-37
2021/12/11 07:39:37;;;;;;;37.40;16.57;;;;;;;4.42;100.00;95828.44;5092811;28;20454;-37
2021/12/11 07:42:05;;;;;;;45.50;23.30;;;;;;;4.64;100.00;95820.88;5092764;28;20883;-37
2021/12/11 07:44:32;;;;;;;33.83;20.17;;;;;;;4.73;100.00;95839.78;5092240;28;20945;-38
2021/12/11 07:47:01;;;;;;;10.90;7.20;;;;;;;4.74;100.00;95835.34;5092996;28;20438;-37
2021/12/11 07:49:29;;;;;;;9.47;5.90;;;;;;;4.85;100.00;95835.38;5092904;28;20471;-38
2021/12/11 07:51:57;;;;;;;53.80;26.83;;;;;;;4.96;100.00;95844.31;5092568;28;20435;-37
2021/12/11 07:54:25;;;;;;;29.87;17.57;;;;;;;5.05;100.00;95848.25;5092762;28;20490;-37
2021/12/11 07:56:54;;;;;;;25.57;15.10;;;;;;;5.12;100.00;95833.19;5092054;28;20439;-37
2021/12/11 07:59:21;;;;;;;115.67;50.33;;;;;;;5.17;100.00;95839.59;5093033;28;20443;-37
2021/12/11 08:01:52;;;;;;;47.83;29.23;;;;;;;5.23;100.00;95843.97;5092734;28;20447;-37
2021/12/11 08:04:21;;;;;;;39.63;22.23;;;;;;;5.31;100.00;95849.72;5092232;28;20462;-37
2021/12/11 08:06:49;;;;;;;31.03;17.20;;;;;;;5.39;100.00;95831.97;5092577;28;20457;-38
2021/12/11 08:09:19;;;;;;;21.27;14.53;;;;;;;5.54;97.80;95840.22;5092124;28;20512;-38
2021/12/11 08:11:49;;;;;;;15.40;11.87;;;;;;;5.61;98.02;95851.44;5091924;28;20433;-38
2021/12/11 08:14:17;;;;;;;19.57;12.13;;;;;;;5.67;97.35;95834.75;5094416;28;20493;-37
2021/12/11 08:16:47;;;;;;;7.17;5.10;;;;;;;5.72;98.57;95813.81;5094458;28;20442;-38
2021/12/11 08:19:17;;;;;;;16.80;11.07;;;;;;;5.82;99.66;95820.31;5094619;28;20493;-37
2021/12/11 08:21:45;;;;;;;36.10;19.80;;;;;;;5.84;100.00;95836.69;5092941;28;20427;-36
2021/12/11 08:24:12;;;;;;;26.37;16.90;;;;;;;5.88;100.00;95824.69;5091848;28;20450;-38
2021/12/11 08:26:41;;;;;;;52.77;31.37;;;;;;;5.98;100.00;95824.13;5091947;28;20799;-38
2021/12/11 08:29:11;;;;;;;39.53;22.27;;;;;;;5.91;100.00;95803.13;5091960;28;20504;-39
2021/12/11 08:31:42;;;;;;;20.80;15.10;;;;;;;6.02;99.87;95833.97;5092254;28;20427;-37
2021/12/11 08:34:10;;;;;;;20.07;10.70;;;;;;;6.03;100.00;95837.41;5092208;28;20466;-37
2021/12/11 08:36:38;;;;;;;69.10;31.37;;;;;;;6.08;100.00;95835.69;5091353;28;20431;-38
2021/12/11 08:39:09;;;;;;;27.60;14.60;;;;;;;6.15;100.00;95846.91;5091606;28;20443;-38
2021/12/11 08:41:37;;;;;;;17.50;11.13;;;;;;;6.22;100.00;95836.25;5092096;28;20779;-38
2021/12/11 08:44:10;;;;;;;18.43;10.00;;;;;;;6.30;98.06;95837.72;5091730;28;20934;-38
2021/12/11 08:46:41;;;;;;;15.47;9.63;;;;;;;6.37;97.77;95848.94;5091696;28;20590;-38
2021/12/11 08:49:13;;;;;;;18.63;11.43;;;;;;;6.40;98.08;95848.47;5091139;28;20442;-38
2021/12/11 08:51:44;;;;;;;24.37;16.30;;;;;;;6.51;97.83;95844.19;5092516;28;20506;-37
2021/12/11 08:54:13;;;;;;;45.30;24.70;;;;;;;6.66;96.83;95831.31;5093562;28;20955;-38
2021/12/11 08:56:41;;;;;;;38.77;17.97;;;;;;;6.78;96.53;95831.28;5093572;28;20930;-37
2021/12/11 08:59:14;;;;;;;23.23;14.20;;;;;;;6.86;93.79;95830.09;5093581;28;20869;-37
2021/12/11 09:01:50;;;;;;;27.93;18.00;;;;;;;6.92;94.06;95822.03;5093601;28;20438;-38
2021/12/11 09:04:22;;;;;;;20.20;11.77;;;;;;;6.97;94.19;95816.84;5093941;28;20466;-38
2021/12/11 09:06:55;;;;;;;17.10;12.40;;;;;;;7.01;92.01;95816.38;5093919;28;20790;-37
2021/12/11 09:09:27;;;;;;;33.67;17.83;;;;;;;7.04;92.48;95794.81;5093522;28;20434;-37
2021/12/11 09:11:58;;;;;;;32.13;18.67;;;;;;;7.09;93.43;95786.97;5093772;28;20446;-37
2021/12/11 09:14:33;;;;;;;20.80;13.87;;;;;;;7.11;93.04;95798.06;5093715;28;20424;-37
2021/12/11 09:17:07;;;;;;;17.57;9.83;;;;;;;6.98;92.66;95797.34;5093434;28;20437;-38
2021/12/11 09:19:39;;;;;;;12.70;8.23;;;;;;;6.98;93.32;95785.97;5093404;28;20467;-37
2021/12/11 09:22:10;;;;;;;9.73;8.07;;;;;;;6.98;94.43;95784.13;5093482;28;20433;-36
2021/12/11 09:24:44;;;;;;;15.20;11.63;;;;;;;7.00;94.32;95773.34;5093685;28;20431;-37
2021/12/11 09:27:16;;;;;;;82.37;49.50;;;;;;;7.03;94.50;95764.16;5093323;28;20439;-36
2021/12/11 09:29:47;;;;;;;63.43;34.63;;;;;;;7.09;95.34;95779.03;5094176;28;20526;-36
2021/12/11 09:32:20;;;;;;;36.40;22.27;;;;;;;7.03;97.33;95783.41;5093618;28;20430;-37
2021/12/11 09:34:50;;;;;;;18.53;10.33;;;;;;;7.07;97.53;95773.19;5093235;28;20977;-38
2021/12/11 09:37:20;;;;;;;17.00;12.67;;;;;;;7.01;97.40;95774.16;5093351;28;20431;-37
2021/12/11 09:39:50;;;;;;;10.60;7.30;;;;;;;7.06;97.57;95782.97;5093326;28;20515;-38
2021/12/11 09:42:17;;;;;;;20.57;11.60;;;;;;;7.07;96.11;95774.00;5093327;28;20439;-37
2021/12/11 09:44:49;;;;;;;17.57;10.43;;;;;;;7.02;95.95;95749.38;5093532;28;20462;-37
2021/12/11 09:47:19;;;;;;;47.33;20.40;;;;;;;7.15;96.04;95775.44;5093216;28;20435;-37
2021/12/11 09:49:53;;;;;;;12.77;8.70;;;;;;;7.16;96.29;95748.00;5093584;28;20442;-34
2021/12/11 09:52:24;;;;;;;11.20;7.13;;;;;;;7.15;92.97;95741.13;5096950;28;20968;-37
2021/12/11 09:54:56;;;;;;;23.63;15.80;;;;;;;7.02;91.23;95749.38;5097265;28;20911;-37
2021/12/11 09:57:26;;;;;;;26.77;18.00;;;;;;;7.04;92.34;95747.28;5097061;28;20791;-37
2021/12/11 09:59:57;;;;;;;27.33;17.03;;;;;;;7.11;91.14;95724.19;5097445;28;20447;-38
2021/12/11 10:02:29;;;;;;;52.63;25.83;;;;;;;7.16;91.21;95746.19;5094398;28;20438;-38
2021/12/11 10:05:01;;;;;;;52.30;24.43;;;;;;;7.20;92.56;95756.25;5094529;28;20565;-37
2021/12/11 10:07:34;;;;;;;57.13;27.30;;;;;;;7.21;94.00;95734.91;5094680;28;20480;-37
2021/12/11 10:10:12;;;;;;;20.27;12.20;;;;;;;7.25;94.56;95736.03;5094974;28;20832;-38
2021/12/11 10:12:42;;;;;;;29.47;17.67;;;;;;;7.27;94.24;95739.22;5094908;28;20434;-37
2021/12/11 10:15:19;;;;;;;34.53;19.47;;;;;;;7.33;95.93;95746.16;5094387;28;20482;-38
2021/12/11 10:17:49;;;;;;;58.63;26.70;;;;;;;7.37;96.00;95736.72;5094760;28;20799;-37
2021/12/11 10:20:22;;;;;;;60.30;28.50;;;;;;;7.43;94.14;95728.88;5094305;28;20427;-37
2021/12/11 10:22:52;;;;;;;31.77;18.50;;;;;;;7.48;93.12;95742.94;5094378;28;20903;-37
2021/12/11 10:25:22;;;;;;;33.60;17.00;;;;;;;7.56;93.94;95741.75;5094181;28;20781;-37
2021/12/11 10:27:50;;;;;;;71.10;38.20;;;;;;;7.57;93.62;95745.97;5094050;28;20788;-37
2021/12/11 10:30:23;;;;;;;67.03;34.33;;;;;;;7.58;93.00;95758.16;5094407;28;20447;-38
2021/12/11 10:32:51;;;;;;;61.30;32.47;;;;;;;7.68;92.89;95746.91;5094379;28;20918;-36
2021/12/11 10:35:22;;;;;;;37.70;22.17;;;;;;;7.78;93.33;95726.72;5096277;28;20507;-37
2021/12/11 10:37:50;;;;;;;77.83;38.03;;;;;;;7.86;92.74;95743.22;5096357;28;20436;-34
2021/12/11 10:40:21;;;;;;;119.03;48.87;;;;;;;7.93;92.06;95734.03;5096013;28;20573;-34
2021/12/11 10:42:53;;;;;;;95.63;40.97;;;;;;;8.07;93.04;95728.41;5096042;28;20438;-37
2021/12/11 10:45:25;;;;;;;63.63;29.33;;;;;;;8.19;92.23;95707.91;5096001;28;20917;-34
2021/12/11 10:47:57;;;;;;;65.90;37.47;;;;;;;8.30;90.13;95711.47;5095964;28;21039;-36
2021/12/11 10:50:28;;;;;;;75.60;39.47;;;;;;;8.33;90.31;95722.38;5096207;28;20431;-34
2021/12/11 10:52:56;;;;;;;142.67;52.83;;;;;;;8.41;90.82;95718.53;5095822;28;20431;-35
2021/12/11 10:55:28;;;;;;;82.23;32.30;;;;;;;8.44;91.77;95702.16;5095941;28;20482;-35
2021/12/11 10:57:58;;;;;;;17.93;10.33;;;;;;;8.49;92.17;95714.63;5096003;28;20423;-35
2021/12/11 11:00:30;;;;;;;115.03;36.97;;;;;;;8.54;91.43;95726.06;5095696;28;20435;-36
2021/12/11 11:02:58;;;;;;;127.57;40.33;;;;;;;8.64;91.83;95721.91;5095518;28;20423;-36
2021/12/11 11:05:28;;;;;;;71.23;20.73;;;;;;;8.73;91.54;95704.53;5095886;28;20760;-35
2021/12/11 11:07:56;;;;;;;25.30;10.30;;;;;;;8.77;91.63;95721.50;5095772;28;20423;-36
2021/12/11 11:10:28;;;;;;;10.30;7.00;;;;;;;8.86;90.98;95724.50;5095732;28;20449;-35
2021/12/11 11:12:58;;;;;;;15.40;7.63;;;;;;;8.93;91.59;95715.31;5095733;28;20443;-36
2021/12/11 11:15:28;;;;;;;12.27;6.97;;;;;;;8.99;90.70;95702.91;5092533;28;20554;-37
2021/12/11 11:17:56;;;;;;;5.43;3.63;;;;;;;9.04;90.55;95700.31;5093295;28;20419;-37
2021/12/11 11:20:28;;;;;;;10.70;5.67;;;;;;;9.07;90.02;95709.59;5093573;28;20855;-38
2021/12/11 11:22:56;;;;;;;31.93;17.43;;;;;;;9.10;89.56;95711.72;5093229;28;20428;-37
2021/12/11 11:25:26;;;;;;;41.83;17.03;;;;;;;9.15;90.28;95695.91;5093397;28;20447;-37
2021/12/11 11:27:59;;;;;;;16.03;8.73;;;;;;;9.08;90.38;95666.16;5092598;28;20450;-37
2021/12/11 11:30:32;;;;;;;7.80;5.20;;;;;;;9.29;91.18;95697.06;5092968;28;20437;-35
2021/12/11 11:33:00;;;;;;;5.70;3.97;;;;;;;9.28;90.06;95684.06;5093348;28;20435;-35
2021/12/11 11:35:31;;;;;;;31.93;16.57;;;;;;;9.37;89.76;95682.53;5092859;28;20486;-36
2021/12/11 11:38:01;;;;;;;15.30;8.87;;;;;;;9.43;88.99;95670.91;5093121;28;20530;-37
2021/12/11 11:40:31;;;;;;;19.33;11.10;;;;;;;9.50;88.69;95662.75;5092655;28;20466;-35
2021/12/11 11:42:58;;;;;;;19.47;10.20;;;;;;;9.52;88.68;95665.94;5092781;28;20450;-35